Time;durP1;ratioP1;P1;durP2;ratioP2;P2;SDS_P1;SDS_P2;PMS_P1;PMS_P2;Temp;Humidity;BMP_temperature;BMP_pressure;BME280_temperature;BME280_humidity;BME280_pressure;Samples;Min_cycle;Max_cycle;Signal;HPM_P1;HPM_P2
2022/08/13 00:00:52;;;;;;;0.57;0.45;;;;;;;23.94;46.96;101281.44;5056460;28;20474;-68
2022/08/13 00:03:19;;;;;;;0.40;0.40;;;;;;;23.91;46.80;101278.38;5056732;28;20108;-68
2022/08/13 00:05:44;;;;;;;0.50;0.50;;;;;;;23.93;47.03;101284.41;5056661;28;20052;-68
2022/08/13 00:08:10;;;;;;;0.50;0.50;;;;;;;23.93;46.83;101278.94;5057177;28;20458;-68
2022/08/13 00:10:36;;;;;;;0.57;0.57;;;;;;;23.92;47.06;101282.75;5056615;28;20029;-68
2022/08/13 00:13:03;;;;;;;0.50;0.50;;;;;;;23.91;46.88;101281.94;5056631;28;20033;-68
2022/08/13 00:15:35;;;;;;;0.40;0.40;;;;;;;23.91;46.65;101287.41;5075407;28;20036;-68
2022/08/13 00:18:19;;;;;;;0.50;0.50;;;;;;;23.93;46.84;101284.41;5076495;28;20043;-68
2022/08/13 00:20:48;;;;;;;0.40;0.40;;;;;;;23.93;46.92;101289.88;5076480;28;20104;-68
2022/08/13 00:23:14;;;;;;;0.70;0.40;;;;;;;23.92;46.94;101285.47;5074840;28;20116;-68
2022/08/13 00:25:39;;;;;;;0.50;0.50;;;;;;;23.91;46.72;101281.94;5075975;28;20052;-68
2022/08/13 00:28:05;;;;;;;0.40;0.40;;;;;;;23.90;46.78;101290.38;5076048;28;20048;-68
2022/08/13 00:30:33;;;;;;;0.40;0.40;;;;;;;23.90;46.74;101287.66;5076317;28;20028;-68
2022/08/13 00:33:12;;;;;;;0.57;0.57;;;;;;;23.91;46.53;101289.31;5075977;28;20063;-68
2022/08/13 00:35:40;;;;;;;0.45;0.40;;;;;;;23.89;46.68;101288.75;5076309;28;20052;-68
2022/08/13 00:38:15;;;;;;;0.50;0.50;;;;;;;23.88;46.32;101298.81;5076715;28;20036;-68
2022/08/13 00:40:42;;;;;;;0.50;0.50;;;;;;;23.88;46.55;101293.34;5076284;28;20037;-68
2022/08/13 00:43:07;;;;;;;0.47;0.47;;;;;;;23.88;46.51;101292.53;5074916;28;20530;-68
2022/08/13 00:45:33;;;;;;;0.52;0.52;;;;;;;23.88;46.50;101298.81;5075901;28;20025;-68
2022/08/13 00:50:43;;;;;;;0.50;0.50;;;;;;;23.88;46.24;101295.28;5075977;28;20036;-68
2022/08/13 00:53:14;;;;;;;0.40;0.40;;;;;;;23.87;46.03;101290.88;5076133;28;20032;-68
2022/08/13 00:55:39;;;;;;;0.43;0.43;;;;;;;23.86;46.47;101295.53;5076044;28;20032;-68
2022/08/13 00:58:05;;;;;;;0.50;0.50;;;;;;;23.86;46.26;101294.72;5075753;28;20513;-68
2022/08/13 01:00:30;;;;;;;0.50;0.50;;;;;;;23.85;46.17;101299.31;5075953;28;20048;-68
2022/08/13 01:02:56;;;;;;;0.47;0.47;;;;;;;23.85;45.95;101295.78;5076088;28;20466;-68
2022/08/13 01:05:24;;;;;;;0.50;0.50;;;;;;;23.85;46.09;101295.78;5075389;28;20390;-68
2022/08/13 01:07:49;;;;;;;0.45;0.45;;;;;;;23.84;46.09;101300.41;5075837;28;20032;-67
2022/08/13 01:10:15;;;;;;;0.40;0.40;;;;;;;23.83;45.86;101293.28;5074588;28;20048;-67
2022/08/13 01:12:41;;;;;;;0.50;0.50;;;;;;;23.83;45.77;101295.22;5075183;28;20055;-67
2022/08/13 01:15:11;;;;;;;0.50;0.50;;;;;;;23.81;45.78;101299.00;5059888;28;20029;-67
2022/08/13 01:17:37;;;;;;;1.02;0.40;;;;;;;23.82;45.93;101302.59;5055003;28;20031;-67
2022/08/13 01:20:03;;;;;;;0.40;0.40;;;;;;;23.84;45.86;101302.31;5054106;28;20104;-67
2022/08/13 01:22:29;;;;;;;0.50;0.50;;;;;;;23.83;45.73;101306.13;5055663;28;20024;-67
2022/08/13 01:24:55;;;;;;;0.43;0.43;;;;;;;23.80;45.86;101311.00;5055145;28;20036;-67
2022/08/13 01:27:21;;;;;;;0.40;0.40;;;;;;;23.81;45.72;101304.47;5054842;28;20028;-67
2022/08/13 01:29:48;;;;;;;0.32;0.32;;;;;;;23.80;45.73;101301.94;5055117;28;20035;-67
2022/08/13 01:32:15;;;;;;;0.50;0.50;;;;;;;23.80;45.73;101302.81;5054773;28;20041;-67
2022/08/13 01:34:42;;;;;;;0.40;0.40;;;;;;;23.80;45.45;101302.81;5053433;28;20075;-67
2022/08/13 01:37:08;;;;;;;0.50;0.50;;;;;;;23.81;45.61;101309.09;5037820;28;20064;-67
2022/08/13 01:39:33;;;;;;;0.50;0.50;;;;;;;23.81;45.53;101307.19;5053284;28;20387;-67
2022/08/13 01:41:59;;;;;;;0.38;0.38;;;;;;;23.80;45.23;101313.72;5054739;28;20017;-67
2022/08/13 01:44:25;;;;;;;0.43;0.43;;;;;;;23.81;45.33;101315.38;5054582;28;20052;-67
2022/08/13 01:52:30;;;;;;;0.32;0.32;;;;;;;23.79;45.19;101316.69;5054326;28;20040;-67
2022/08/13 01:54:55;;;;;;;0.50;0.50;;;;;;;23.80;45.11;101324.63;5053090;28;20021;-67
2022/08/13 01:57:21;;;;;;;0.40;0.40;;;;;;;23.79;44.98;101314.78;5036536;28;20021;-67
2022/08/13 01:59:46;;;;;;;0.38;0.38;;;;;;;23.78;45.22;101315.88;5036765;28;20021;-67
2022/08/13 02:02:12;;;;;;;0.60;0.50;;;;;;;23.77;45.28;101319.69;5054208;28;20029;-67
2022/08/13 02:04:39;;;;;;;0.35;0.35;;;;;;;23.78;44.85;101320.50;5052930;28;20024;-68
2022/08/13 02:07:06;;;;;;;0.45;0.45;;;;;;;23.78;45.17;101331.41;5053983;28;20025;-68
2022/08/13 02:09:32;;;;;;;0.43;0.43;;;;;;;23.77;45.15;101329.78;5053976;28;20433;-69
2022/08/13 02:11:57;;;;;;;0.45;0.45;;;;;;;23.77;45.07;101335.25;5054223;28;20033;-69
2022/08/13 02:14:23;;;;;;;0.45;0.45;;;;;;;23.77;45.05;101332.50;5062616;28;20363;-69
2022/08/13 02:16:49;;;;;;;0.47;0.47;;;;;;;23.77;44.76;101329.78;5073414;28;20082;-69
2022/08/13 02:19:14;;;;;;;0.60;0.60;;;;;;;23.75;45.09;101332.75;5074301;28;20400;-69
2022/08/13 02:21:40;;;;;;;0.50;0.50;;;;;;;23.75;44.68;101326.44;5072937;28;20032;-69
2022/08/13 02:24:12;;;;;;;0.60;0.60;;;;;;;23.75;44.54;101332.75;5074174;28;20025;-68
2022/08/13 02:26:38;;;;;;;0.40;0.40;;;;;;;23.73;44.73;101329.47;5073945;28;20485;-68
2022/08/13 02:29:04;;;;;;;0.40;0.40;;;;;;;23.75;44.54;101326.44;5072744;28;20024;-68
2022/08/13 02:31:29;;;;;;;0.52;0.50;;;;;;;23.73;44.41;101325.88;5073936;28;20044;-68
2022/08/13 02:33:55;;;;;;;0.40;0.40;;;;;;;23.73;44.72;101334.91;5073761;28;20047;-68
2022/08/13 02:36:22;;;;;;;0.47;0.47;;;;;;;23.74;44.55;101339.28;5073935;28;20025;-68
2022/08/13 02:38:54;;;;;;;0.50;0.50;;;;;;;23.73;44.41;101342.25;5073630;28;20455;-68
2022/08/13 02:41:39;;;;;;;0.40;0.40;;;;;;;23.74;44.67;101346.66;5073972;28;20056;-68
2022/08/13 02:44:15;;;;;;;0.50;0.50;;;;;;;23.74;44.44;101347.47;5072921;28;20474;-68
2022/08/13 02:46:42;;;;;;;0.50;0.50;;;;;;;23.73;44.30;101351.28;5074052;28;20032;-68
2022/08/13 02:49:08;;;;;;;0.40;0.40;;;;;;;23.72;44.44;101349.63;5073882;28;20029;-68
2022/08/13 02:51:33;;;;;;;0.40;0.40;;;;;;;23.71;44.52;101347.97;5073498;28;20386;-68
2022/08/13 02:54:00;;;;;;;0.40;0.40;;;;;;;23.72;44.24;101355.09;5073333;28;20017;-68
2022/08/13 02:56:26;;;;;;;0.40;0.40;;;;;;;23.71;44.36;101358.88;5072135;28;20031;-68
2022/08/13 02:58:53;;;;;;;0.50;0.50;;;;;;;23.71;44.54;101349.88;5073540;28;20024;-68
2022/08/13 03:01:18;;;;;;;0.40;0.40;;;;;;;23.71;44.62;101350.69;5073546;28;20024;-68
2022/08/13 03:03:43;;;;;;;0.43;0.43;;;;;;;23.70;44.50;101349.06;5055328;28;20021;-68
2022/08/13 03:06:09;;;;;;;0.50;0.50;;;;;;;23.71;44.60;101353.44;5071330;28;20036;-68
2022/08/13 03:08:34;;;;;;;0.38;0.38;;;;;;;23.71;44.68;101350.69;5073397;28;20028;-68
2022/08/13 03:11:00;;;;;;;0.50;0.50;;;;;;;23.71;44.48;101353.44;5073182;28;20086;-68
2022/08/13 03:13:26;;;;;;;0.45;0.45;;;;;;;23.70;44.74;101354.53;5073376;28;20032;-68
2022/08/13 03:15:53;;;;;;;0.50;0.50;;;;;;;23.70;44.54;101350.94;5052053;28;20036;-68
2022/08/13 03:18:19;;;;;;;0.52;0.52;;;;;;;23.70;44.69;101354.53;5052197;28;20029;-68
2022/08/13 03:20:44;;;;;;;0.30;0.30;;;;;;;23.67;44.52;101349.56;5053274;28;20075;-68
2022/08/13 03:23:10;;;;;;;0.40;0.40;;;;;;;23.71;44.83;101353.44;5053201;28;20349;-68
2022/08/13 03:25:36;;;;;;;0.40;0.40;;;;;;;23.69;44.99;101361.03;5052993;28;20029;-68
2022/08/13 03:28:01;;;;;;;0.40;0.40;;;;;;;23.68;44.69;101353.94;5052992;28;20430;-68
2022/08/13 03:30:27;;;;;;;0.50;0.50;;;;;;;23.68;44.96;101359.41;5052040;28;20021;-68
2022/08/13 03:32:53;;;;;;;0.40;0.30;;;;;;;23.67;44.97;101357.75;5052999;28;20140;-68
2022/08/13 03:35:20;;;;;;;0.50;0.50;;;;;;;23.67;44.79;101360.47;5053479;28;20025;-68
2022/08/13 03:37:49;;;;;;;0.50;0.50;;;;;;;23.67;44.84;101363.22;5052970;28;20025;-68
2022/08/13 03:40:15;;;;;;;0.40;0.40;;;;;;;23.68;44.72;101362.13;5053220;28;20025;-68
2022/08/13 03:42:41;;;;;;;0.50;0.50;;;;;;;23.67;44.94;101357.75;5052797;28;20466;-68
2022/08/13 03:45:07;;;;;;;0.40;0.40;;;;;;;23.67;44.79;101362.38;5053082;28;20040;-68
2022/08/13 03:47:33;;;;;;;0.50;0.50;;;;;;;23.66;44.76;101368.91;5052776;28;20542;-68
2022/08/13 03:49:59;;;;;;;0.40;0.40;;;;;;;23.68;44.85;101364.03;5052735;28;20055;-68
2022/08/13 03:52:25;;;;;;;0.50;0.50;;;;;;;23.67;45.04;101374.13;5053121;28;20025;-68
2022/08/13 03:54:50;;;;;;;0.50;0.50;;;;;;;23.67;44.62;101374.13;5052934;28;20034;-68
2022/08/13 03:57:19;;;;;;;0.40;0.40;;;;;;;23.67;44.85;101373.31;5052716;28;20071;-68
2022/08/13 03:59:48;;;;;;;0.40;0.40;;;;;;;23.66;44.78;101371.63;5053320;28;20033;-68
2022/08/13 04:02:15;;;;;;;0.50;0.50;;;;;;;23.66;44.90;101382.56;5052494;28;20104;-68
2022/08/13 04:04:46;;;;;;;0.40;0.40;;;;;;;23.66;45.00;101383.38;5052778;28;20196;-68
2022/08/13 04:07:12;;;;;;;0.55;0.55;;;;;;;23.66;44.95;101382.56;5052751;28;20029;-68
2022/08/13 04:09:37;;;;;;;0.55;0.55;;;;;;;23.64;44.92;101393.72;5052808;28;20092;-68
2022/08/13 04:12:09;;;;;;;0.50;0.50;;;;;;;23.65;44.77;101389.94;5052877;28;20463;-68
2022/08/13 04:14:35;;;;;;;0.60;0.60;;;;;;;23.65;44.95;101391.84;5061520;28;20491;-68
2022/08/13 04:17:00;;;;;;;0.50;0.50;;;;;;;23.65;44.69;101403.56;5075209;28;20059;-68
2022/08/13 04:19:26;;;;;;;0.50;0.50;;;;;;;23.65;44.74;101394.56;5076370;28;20401;-68
2022/08/13 04:21:52;;;;;;;0.47;0.47;;;;;;;23.63;44.93;101401.09;5076254;28;20051;-68
2022/08/13 04:24:18;;;;;;;0.40;0.40;;;;;;;23.63;44.75;101395.63;5076412;28;20028;-68
2022/08/13 04:26:46;;;;;;;0.43;0.43;;;;;;;23.62;44.75;101393.97;5076510;28;20378;-69
2022/08/13 04:29:13;;;;;;;0.50;0.50;;;;;;;23.65;44.71;101402.75;5076159;28;20067;-69
2022/08/13 04:31:38;;;;;;;0.60;0.60;;;;;;;23.63;44.91;101398.34;5076669;28;20037;-68
2022/08/13 04:34:05;;;;;;;0.60;0.60;;;;;;;23.63;44.94;101395.63;5075622;28;20047;-68
2022/08/13 04:36:31;;;;;;;0.50;0.50;;;;;;;23.63;44.99;101395.63;5074520;28;20425;-68
2022/08/13 04:38:56;;;;;;;0.40;0.40;;;;;;;23.65;44.96;101397.28;5075838;28;20090;-68
2022/08/13 04:41:22;;;;;;;0.50;0.50;;;;;;;23.63;44.82;101401.09;5075807;28;20029;-68
2022/08/13 04:43:47;;;;;;;0.50;0.50;;;;;;;23.64;44.84;101404.63;5075964;28;20021;-68
2022/08/13 04:46:12;;;;;;;0.57;0.57;;;;;;;23.64;44.91;101407.38;5075910;28;20021;-68
2022/08/13 04:48:38;;;;;;;0.35;0.35;;;;;;;23.64;44.79;101401.91;5075617;28;20021;-67
2022/08/13 04:51:05;;;;;;;0.40;0.40;;;;;;;23.61;44.86;101403.25;5075480;28;20052;-68
2022/08/13 04:53:35;;;;;;;0.63;0.60;;;;;;;23.62;44.73;101404.88;5075887;28;20055;-68
2022/08/13 04:56:01;;;;;;;0.60;0.60;;;;;;;23.61;44.82;101396.94;5075395;28;20111;-68
2022/08/13 04:58:35;;;;;;;0.50;0.50;;;;;;;23.62;44.93;101399.41;5075403;28;20036;-68
2022/08/13 05:01:04;;;;;;;0.50;0.50;;;;;;;23.65;44.69;101406.28;5075419;28;20103;-68
2022/08/13 05:03:30;;;;;;;0.60;0.60;;;;;;;23.63;44.55;101405.72;5075326;28;20025;-68
2022/08/13 05:05:56;;;;;;;0.40;0.40;;;;;;;23.59;44.66;101405.41;5075499;28;20032;-68
2022/08/13 05:08:22;;;;;;;0.60;0.60;;;;;;;23.61;44.72;101407.84;5075466;28;20024;-68
2022/08/13 05:10:49;;;;;;;0.60;0.60;;;;;;;23.57;44.85;101399.34;5075176;28;20032;-68
2022/08/13 05:13:21;;;;;;;0.50;0.50;;;;;;;23.60;44.26;101398.03;5074151;28;20466;-68
2022/08/13 05:15:47;;;;;;;0.50;0.50;;;;;;;23.62;44.52;101412.25;5057071;28;20031;-68
2022/08/13 05:18:12;;;;;;;0.52;0.52;;;;;;;23.59;44.75;101405.41;5055223;28;20147;-68
2022/08/13 05:20:39;;;;;;;0.75;0.60;;;;;;;23.59;44.76;101408.13;5054964;28;20017;-68
2022/08/13 05:23:12;;;;;;;0.50;0.50;;;;;;;23.59;44.64;101407.28;5055014;28;20021;-68
2022/08/13 05:25:38;;;;;;;0.57;0.50;;;;;;;23.60;44.56;101412.50;5055030;28;20029;-69
2022/08/13 05:28:03;;;;;;;0.50;0.50;;;;;;;23.60;44.63;101411.69;5054116;28;20025;-69
2022/08/13 05:30:29;;;;;;;0.50;0.50;;;;;;;23.62;44.52;101410.34;5055120;28;20483;-68
2022/08/13 05:32:57;;;;;;;0.60;0.60;;;;;;;23.59;44.14;101405.41;5054339;28;20395;-69
2022/08/13 05:35:23;;;;;;;0.50;0.50;;;;;;;23.60;44.40;101400.75;5054995;28;20025;-68
2022/08/13 05:37:49;;;;;;;0.45;0.45;;;;;;;23.61;44.21;101407.84;5036619;28;20036;-68
2022/08/13 05:40:14;;;;;;;0.63;0.63;;;;;;;23.60;44.20;101401.59;5054850;28;20029;-69
2022/08/13 05:42:40;;;;;;;0.60;0.60;;;;;;;23.61;44.38;101402.41;5054757;28;20099;-69
2022/08/13 05:45:07;;;;;;;0.50;0.50;;;;;;;23.61;43.99;101402.41;5054664;28;20063;-69
2022/08/13 05:47:33;;;;;;;0.80;0.80;;;;;;;23.61;44.31;101400.50;5054710;28;20017;-68
2022/08/13 05:49:59;;;;;;;0.70;0.70;;;;;;;23.61;44.13;101405.97;5054495;28;20356;-68
2022/08/13 05:52:26;;;;;;;0.50;0.50;;;;;;;23.57;44.40;101406.72;5054589;28;20033;-68
2022/08/13 05:54:53;;;;;;;0.70;0.70;;;;;;;23.56;44.40;101416.81;5054303;28;20040;-68
2022/08/13 05:57:18;;;;;;;0.80;0.80;;;;;;;23.56;44.13;101405.91;5054256;28;20028;-68
2022/08/13 06:05:12;;;;;;;0.82;0.68;;;;;;;23.60;43.93;101400.75;5053247;28;20083;-68
2022/08/13 06:07:40;;;;;;;0.70;0.70;;;;;;;23.58;44.11;101405.66;5054388;28;20025;-68
2022/08/13 06:10:06;;;;;;;0.70;0.70;;;;;;;23.59;44.14;101404.56;5054320;28;20483;-68
2022/08/13 06:12:32;;;;;;;0.70;0.60;;;;;;;23.58;44.07;101403.75;5053967;28;20028;-68
2022/08/13 06:14:58;;;;;;;0.50;0.50;;;;;;;23.57;44.21;101407.53;5063440;28;20028;-68
2022/08/13 06:17:23;;;;;;;0.57;0.57;;;;;;;23.58;43.93;101403.75;5072978;28;20100;-68
2022/08/13 06:19:49;;;;;;;0.60;0.60;;;;;;;23.60;44.03;101406.22;5072496;28;20409;-68
2022/08/13 06:22:14;;;;;;;0.60;0.60;;;;;;;23.61;43.98;101405.13;5072804;28;20068;-68
2022/08/13 06:24:40;;;;;;;0.73;0.73;;;;;;;23.60;44.00;101400.75;5056215;28;20553;-68
2022/08/13 06:27:06;;;;;;;0.60;0.60;;;;;;;23.61;44.12;101396.94;5073593;28;20455;-68
2022/08/13 06:29:35;;;;;;;0.60;0.60;;;;;;;23.60;44.12;101398.84;5073981;28;20028;-68
2022/08/13 06:32:03;;;;;;;0.57;0.57;;;;;;;23.64;43.80;101404.63;5073744;28;20059;-68
2022/08/13 06:34:31;;;;;;;0.63;0.63;;;;;;;23.62;43.91;101393.97;5073615;28;20041;-68
2022/08/13 06:36:58;;;;;;;0.63;0.63;;;;;;;23.64;43.93;101399.19;5073945;28;20048;-68
2022/08/13 06:39:24;;;;;;;0.60;0.60;;;;;;;23.64;43.73;101393.72;5073296;28;20067;-68
2022/08/13 06:41:49;;;;;;;0.70;0.70;;;;;;;23.65;44.00;101394.56;5072925;28;20055;-68
2022/08/13 06:44:15;;;;;;;1.02;0.70;;;;;;;23.63;43.70;101383.91;5073751;28;20029;-68
2022/08/13 06:46:40;;;;;;;0.77;0.77;;;;;;;23.65;44.00;101379.00;5072585;28;20020;-68
2022/08/13 06:49:05;;;;;;;0.65;0.60;;;;;;;23.65;44.16;101392.66;5073586;28;20025;-68
2022/08/13 06:51:31;;;;;;;0.70;0.70;;;;;;;23.67;43.57;101385.03;5073674;28;20028;-68
2022/08/13 06:53:57;;;;;;;0.60;0.60;;;;;;;23.66;43.94;101383.38;5073341;28;20021;-68
2022/08/13 06:56:26;;;;;;;0.57;0.57;;;;;;;23.69;43.75;101376.59;5072391;28;20074;-68
2022/08/13 06:58:53;;;;;;;0.70;0.70;;;;;;;23.67;43.78;101374.13;5073568;28;20466;-68
2022/08/13 07:01:23;;;;;;;0.70;0.70;;;;;;;23.67;43.96;101373.31;5073540;28;20028;-68
2022/08/13 07:03:49;;;;;;;0.60;0.60;;;;;;;23.69;43.78;101374.69;5073574;28;20116;-68
2022/08/13 07:06:22;;;;;;;0.70;0.70;;;;;;;23.67;43.80;101374.13;5073569;28;20040;-68
2022/08/13 07:08:47;;;;;;;1.00;0.68;;;;;;;23.68;43.70;101369.47;5073438;28;20379;-68
2022/08/13 07:11:22;;;;;;;0.70;0.70;;;;;;;23.69;43.83;101377.41;5073070;28;20052;-68
2022/08/13 07:13:49;;;;;;;0.60;0.50;;;;;;;23.62;43.99;101366.69;5073259;28;20049;-67
2022/08/13 07:16:16;;;;;;;0.70;0.68;;;;;;;23.68;43.82;101375.78;5053063;28;20108;-69
2022/08/13 07:18:46;;;;;;;0.60;0.60;;;;;;;23.70;43.63;101380.97;5053467;28;20374;-68
2022/08/13 07:21:14;;;;;;;0.60;0.60;;;;;;;23.68;43.73;101375.78;5053106;28;20029;-69
2022/08/13 07:23:40;;;;;;;0.60;0.60;;;;;;;23.69;43.65;101382.88;5053495;28;20108;-68
2022/08/13 07:26:06;;;;;;;0.65;0.65;;;;;;;23.67;43.82;101373.31;5053077;28;20025;-69
2022/08/13 07:28:31;;;;;;;0.63;0.63;;;;;;;23.70;43.43;101378.22;5053537;28;20038;-69
2022/08/13 07:30:57;;;;;;;0.70;0.70;;;;;;;23.70;43.71;101373.63;5053549;28;20455;-69
2022/08/13 07:33:24;;;;;;;0.80;0.80;;;;;;;23.70;43.58;101379.09;5053068;28;20057;-69
2022/08/13 07:35:49;;;;;;;0.65;0.65;;;;;;;23.71;43.54;101386.16;5054031;28;20043;-68
2022/08/13 07:38:15;;;;;;;0.68;0.63;;;;;;;23.71;43.64;101379.91;5053120;28;20412;-68
2022/08/13 07:40:41;;;;;;;0.70;0.70;;;;;;;23.71;43.54;101386.16;5053217;28;20021;-68
2022/08/13 07:43:06;;;;;;;0.65;0.60;;;;;;;23.72;43.36;101379.66;5053068;28;20049;-68
2022/08/13 07:45:32;;;;;;;0.60;0.60;;;;;;;23.71;43.59;101385.34;5052735;28;20427;-68
2022/08/13 07:47:57;;;;;;;0.65;0.65;;;;;;;23.70;43.38;101378.22;5052757;28;20123;-68
2022/08/13 07:50:23;;;;;;;0.70;0.70;;;;;;;23.70;43.35;101379.09;5035392;28;20032;-68
2022/08/13 07:52:55;;;;;;;0.70;0.70;;;;;;;23.69;43.47;101382.88;5055373;28;20063;-68
2022/08/13 07:55:22;;;;;;;0.60;0.60;;;;;;;23.69;43.35;101382.88;5039663;28;20029;-69
2022/08/13 07:57:48;;;;;;;1.02;0.85;;;;;;;23.71;43.28;101385.34;5056630;28;20454;-69
2022/08/13 08:00:21;;;;;;;0.60;0.60;;;;;;;23.71;43.59;101390.81;5056508;28;20079;-69
2022/08/13 08:03:02;;;;;;;1.05;0.80;;;;;;;23.71;43.37;101380.72;5056939;28;20035;-69
2022/08/13 08:05:33;;;;;;;0.60;0.60;;;;;;;23.70;43.39;101392.72;5055294;28;20025;-68
2022/08/13 08:07:59;;;;;;;0.70;0.70;;;;;;;23.71;43.23;101388.91;5056272;28;20459;-68
2022/08/13 08:10:24;;;;;;;1.73;0.60;;;;;;;23.72;43.55;101381.56;5056449;28;20040;-68
2022/08/13 08:12:50;;;;;;;0.63;0.60;;;;;;;23.72;43.31;101395.22;5056264;28;20078;-68
2022/08/13 08:15:15;;;;;;;0.80;0.80;;;;;;;23.71;43.38;101391.63;5067708;28;20028;-68
2022/08/13 08:17:42;;;;;;;0.50;0.50;;;;;;;23.71;43.08;101390.81;5075202;28;20021;-68
2022/08/13 08:20:09;;;;;;;0.77;0.77;;;;;;;23.71;43.17;101405.28;5076103;28;20081;-68
2022/08/13 08:22:34;;;;;;;0.73;0.73;;;;;;;23.71;43.11;101394.34;5075964;28;20455;-68
2022/08/13 08:25:01;;;;;;;0.80;0.70;;;;;;;23.71;43.15;101399.81;5076307;28;20024;-68
2022/08/13 08:27:26;;;;;;;0.65;0.63;;;;;;;23.72;42.98;101398.75;5076307;28;20044;-68
2022/08/13 08:29:52;;;;;;;0.60;0.60;;;;;;;23.73;43.19;101405.88;5075875;28;20104;-68
2022/08/13 08:32:18;;;;;;;0.80;0.80;;;;;;;23.73;42.95;101405.88;5076022;28;20102;-68
2022/08/13 08:34:46;;;;;;;0.60;0.60;;;;;;;23.72;43.09;101404.22;5075928;28;20538;-68
2022/08/13 08:42:57;;;;;;;0.70;0.70;;;;;;;23.69;43.12;101399.25;5075949;28;20035;-68
2022/08/13 08:45:24;;;;;;;0.70;0.70;;;;;;;23.71;42.93;101402.53;5075984;28;20078;-68
2022/08/13 08:47:52;;;;;;;0.70;0.70;;;;;;;23.72;43.23;101406.13;5074997;28;20032;-67
2022/08/13 08:50:19;;;;;;;0.68;0.68;;;;;;;23.69;43.17;101407.44;5076545;28;20035;-68
2022/08/13 08:55:35;;;;;;;;;;;;;;;23.87;42.65;101395.44;5086640;28;20096;-66
2022/08/13 08:58:04;;;;;;;0.65;0.60;;;;;;;23.80;42.89;101402.94;5084658;28;19994;-68
2022/08/13 09:00:30;;;;;;;0.70;0.70;;;;;;;23.77;42.68;101401.56;5085972;28;20029;-68
2022/08/13 09:02:56;;;;;;;0.57;0.40;;;;;;;23.76;43.01;101399.88;5083831;28;20040;-68
2022/08/13 09:05:22;;;;;;;0.57;0.57;;;;;;;23.75;42.63;101391.94;5086156;28;20090;-68
2022/08/13 09:07:49;;;;;;;0.70;0.70;;;;;;;23.74;43.06;101395.78;5076787;28;20024;-68
2022/08/13 09:10:15;;;;;;;0.50;0.50;;;;;;;23.75;42.87;101392.81;5076177;28;20020;-68
2022/08/13 09:12:42;;;;;;;0.57;0.50;;;;;;;23.74;43.06;101391.13;5075519;28;20105;-68
2022/08/13 09:15:10;;;;;;;1.77;0.70;;;;;;;23.75;43.17;101390.06;5065521;28;20380;-68
2022/08/13 09:17:35;;;;;;;0.63;0.63;;;;;;;23.76;43.10;101383.50;5054369;28;20024;-68
2022/08/13 09:20:01;;;;;;;0.65;0.65;;;;;;;23.76;42.84;101385.44;5037621;28;20490;-68
2022/08/13 09:22:27;;;;;;;0.55;0.55;;;;;;;23.74;42.73;101380.22;5055295;28;20459;-68
2022/08/13 09:24:56;;;;;;;0.70;0.70;;;;;;;23.78;42.83;101386.00;5054029;28;20138;-68
2022/08/13 09:27:22;;;;;;;0.90;0.80;;;;;;;23.78;42.93;101373.19;5055122;28;20029;-68
2022/08/13 09:29:50;;;;;;;0.70;0.60;;;;;;;23.80;42.49;101378.38;5054746;28;20028;-68
2022/08/13 09:32:16;;;;;;;0.70;0.70;;;;;;;23.76;42.73;101369.06;5054940;28;20375;-68
2022/08/13 09:34:44;;;;;;;0.88;0.70;;;;;;;23.79;42.65;101374.00;5055104;28;20021;-68
2022/08/13 09:37:09;;;;;;;0.50;0.50;;;;;;;23.80;42.69;101372.91;5055060;28;20386;-68
2022/08/13 09:39:57;;;;;;;0.60;0.60;;;;;;;23.83;43.04;101372.44;5055699;28;20028;-68
2022/08/13 09:42:25;;;;;;;0.60;0.60;;;;;;;23.81;42.41;101380.88;5053282;28;20028;-68
2022/08/13 09:44:54;;;;;;;2.38;0.80;;;;;;;23.81;42.12;101374.63;5054937;28;20113;-68
2022/08/13 09:47:20;;;;;;;0.50;0.50;;;;;;;23.83;42.52;101374.38;5054436;28;20479;-69
2022/08/13 09:49:48;;;;;;;0.40;0.40;;;;;;;23.83;42.18;101371.63;5054812;28;20048;-69
2022/08/13 09:52:13;;;;;;;0.60;0.60;;;;;;;23.80;42.47;101373.75;5054661;28;20364;-68
2022/08/13 09:54:40;;;;;;;0.63;0.60;;;;;;;23.81;42.42;101372.69;5054250;28;20027;-69
2022/08/13 09:57:06;;;;;;;0.80;0.60;;;;;;;23.82;42.11;101370.81;5054259;28;20479;-69
2022/08/13 09:59:32;;;;;;;0.70;0.60;;;;;;;23.81;42.12;101364.50;5054236;28;20083;-69
2022/08/13 10:01:58;;;;;;;0.77;0.77;;;;;;;23.80;42.28;101365.56;5054109;28;20094;-69
2022/08/13 10:04:26;;;;;;;0.52;0.52;;;;;;;23.83;42.11;101367.00;5054125;28;20036;-69
2022/08/13 10:06:51;;;;;;;0.68;0.50;;;;;;;23.83;42.02;101363.44;5054414;28;20033;-69
2022/08/13 10:09:17;;;;;;;0.70;0.70;;;;;;;23.83;41.89;101363.44;5054545;28;20021;-69
2022/08/13 10:11:42;;;;;;;0.80;0.80;;;;;;;23.84;42.19;101362.38;5054307;28;20051;-69
2022/08/13 10:14:08;;;;;;;0.50;0.50;;;;;;;23.84;42.11;101365.09;5054511;28;20029;-68
2022/08/13 10:16:35;;;;;;;0.45;0.45;;;;;;;23.83;41.85;101360.72;5074139;28;20146;-68
2022/08/13 10:19:03;;;;;;;0.40;0.40;;;;;;;23.83;42.14;101361.53;5073032;28;20074;-67
2022/08/13 10:21:28;;;;;;;0.60;0.60;;;;;;;23.80;41.75;101362.84;5073900;28;20032;-67
2022/08/13 10:23:54;;;;;;;0.60;0.60;;;;;;;23.83;41.93;101366.19;5074149;28;20024;-68
2022/08/13 10:26:19;;;;;;;0.70;0.60;;;;;;;23.84;41.70;101370.56;5074245;28;20467;-68
2022/08/13 10:28:45;;;;;;;0.65;0.65;;;;;;;23.79;41.93;101361.19;5073978;28;20028;-69
2022/08/13 10:31:11;;;;;;;0.57;0.57;;;;;;;23.81;41.53;101369.16;5073833;28;20032;-69
2022/08/13 10:33:36;;;;;;;0.40;0.40;;;;;;;23.81;41.62;101369.16;5073337;28;20075;-69
2022/08/13 10:36:04;;;;;;;0.40;0.40;;;;;;;23.83;41.80;101366.19;5073880;28;20020;-69
2022/08/13 10:38:29;;;;;;;0.75;0.65;;;;;;;23.81;41.27;101363.69;5074174;28;20083;-69
2022/08/13 10:40:56;;;;;;;0.68;0.68;;;;;;;23.84;41.30;101354.19;5073850;28;20471;-68
2022/08/13 10:43:22;;;;;;;0.70;0.70;;;;;;;23.80;41.60;101356.53;5073771;28;20031;-68
2022/08/13 10:45:51;;;;;;;0.52;0.52;;;;;;;23.81;40.90;101356.31;5073722;28;20459;-68
2022/08/13 10:48:17;;;;;;;0.68;0.50;;;;;;;23.83;40.88;101360.72;5073576;28;20484;-68
2022/08/13 10:50:43;;;;;;;0.60;0.60;;;;;;;23.84;41.30;101356.91;5073726;28;20024;-68
2022/08/13 10:53:08;;;;;;;0.50;0.50;;;;;;;23.83;40.61;101358.00;5073693;28;20108;-68
2022/08/13 10:55:35;;;;;;;0.50;0.50;;;;;;;23.81;41.25;101359.06;5073628;28;20111;-68
2022/08/13 10:58:01;;;;;;;0.30;0.30;;;;;;;23.80;40.81;101356.53;5073579;28;20059;-68
2022/08/13 11:00:26;;;;;;;0.88;0.68;;;;;;;23.82;40.80;101359.91;5073594;28;20027;-68
2022/08/13 11:02:52;;;;;;;0.95;0.63;;;;;;;23.82;40.54;101354.44;5073626;28;20534;-68
2022/08/13 11:05:25;;;;;;;0.50;0.50;;;;;;;23.83;40.65;101347.06;5073444;28;20032;-68
2022/08/13 11:07:51;;;;;;;0.50;0.50;;;;;;;23.79;40.74;101350.25;5073859;28;20025;-68
2022/08/13 11:10:18;;;;;;;0.50;0.50;;;;;;;23.79;40.83;101353.00;5073691;28;20517;-68
2022/08/13 11:12:50;;;;;;;0.60;0.60;;;;;;;23.77;40.66;101352.44;5073552;28;20052;-68
2022/08/13 11:15:15;;;;;;;1.13;0.60;;;;;;;23.77;40.36;101357.88;5064617;28;20029;-68
2022/08/13 11:17:46;;;;;;;0.68;0.60;;;;;;;23.76;40.67;101353.50;5053529;28;20486;-68
2022/08/13 11:20:17;;;;;;;0.50;0.50;;;;;;;23.77;40.87;101346.97;5053433;28;20029;-68
2022/08/13 11:22:42;;;;;;;0.50;0.50;;;;;;;23.74;40.76;101346.66;5053330;28;20029;-68
2022/08/13 11:25:08;;;;;;;0.70;0.60;;;;;;;23.74;40.23;101335.72;5053451;28;20032;-68
2022/08/13 11:27:34;;;;;;;0.50;0.50;;;;;;;23.72;40.25;101338.72;5056096;28;20376;-67
2022/08/13 11:30:00;;;;;;;0.52;0.52;;;;;;;23.74;39.92;101342.00;5057531;28;20075;-69
2022/08/13 11:32:25;;;;;;;0.70;0.50;;;;;;;23.77;40.16;101336.06;5056977;28;20049;-69
2022/08/13 11:34:50;;;;;;;0.60;0.60;;;;;;;23.76;40.41;101339.84;5057421;28;20037;-68
2022/08/13 11:37:16;;;;;;;0.57;0.50;;;;;;;23.76;39.87;101328.94;5057083;28;20032;-68
2022/08/13 11:39:41;;;;;;;0.60;0.60;;;;;;;23.74;40.16;101328.38;5057213;28;20040;-68
2022/08/13 11:42:07;;;;;;;0.40;0.40;;;;;;;23.76;40.03;101322.66;5057652;28;20035;-68
2022/08/13 11:44:32;;;;;;;0.43;0.43;;;;;;;23.77;40.12;101325.13;5057291;28;20464;-68